sensor_id;sensor_type;location;lat;lon;timestamp;temperature;humidity
8896;DHT22;4484;48.928;10.066;2023-07-29T00:01:37;15.70;99.90
8896;DHT22;4484;48.928;10.066;2023-07-29T00:04:08;15.60;99.90
8896;DHT22;4484;48.928;10.066;2023-07-29T00:06:36;15.60;99.90
8896;DHT22;4484;48.928;10.066;2023-07-29T00:09:03;15.60;99.90
8896;DHT22;4484;48.928;10.066;2023-07-29T00:11:30;15.60;99.90
8896;DHT22;4484;48.928;10.066;2023-07-29T00:14:01;15.60;99.90
8896;DHT22;4484;48.928;10.066;2023-07-29T00:16:28;15.60;99.90
8896;DHT22;4484;48.928;10.066;2023-07-29T00:18:55;15.60;99.90
8896;DHT22;4484;48.928;10.066;2023-07-29T00:21:22;15.60;99.90
8896;DHT22;4484;48.928;10.066;2023-07-29T00:23:49;15.60;99.90
8896;DHT22;4484;48.928;10.066;2023-07-29T00:26:16;15.60;99.90
8896;DHT22;4484;48.928;10.066;2023-07-29T00:28:43;15.60;99.90
8896;DHT22;4484;48.928;10.066;2023-07-29T00:31:10;15.60;99.90
8896;DHT22;4484;48.928;10.066;2023-07-29T00:33:37;15.60;99.90
8896;DHT22;4484;48.928;10.066;2023-07-29T00:36:04;15.60;99.90
8896;DHT22;4484;48.928;10.066;2023-07-29T00:38:31;15.60;99.90
8896;DHT22;4484;48.928;10.066;2023-07-29T00:41:00;15.60;99.90
8896;DHT22;4484;48.928;10.066;2023-07-29T00:43:29;15.50;99.90
8896;DHT22;4484;48.928;10.066;2023-07-29T00:45:56;15.50;99.90
8896;DHT22;4484;48.928;10.066;2023-07-29T00:48:25;15.50;99.90
8896;DHT22;4484;48.928;10.066;2023-07-29T00:50:53;15.50;99.90
8896;DHT22;4484;48.928;10.066;2023-07-29T00:53:20;15.40;99.90
8896;DHT22;4484;48.928;10.066;2023-07-29T00:55:49;15.40;99.90
8896;DHT22;4484;48.928;10.066;2023-07-29T00:58:16;15.30;99.90
8896;DHT22;4484;48.928;10.066;2023-07-29T01:00:43;15.30;99.90
8896;DHT22;4484;48.928;10.066;2023-07-29T01:03:10;15.40;99.90
8896;DHT22;4484;48.928;10.066;2023-07-29T01:05:55;15.40;99.90
8896;DHT22;4484;48.928;10.066;2023-07-29T01:08:33;15.30;99.90
8896;DHT22;4484;48.928;10.066;2023-07-29T01:11:28;15.30;99.90
8896;DHT22;4484;48.928;10.066;2023-07-29T01:14:05;15.30;99.90
8896;DHT22;4484;48.928;10.066;2023-07-29T01:16:48;15.30;99.90
8896;DHT22;4484;48.928;10.066;2023-07-29T01:22:08;15.30;99.90
8896;DHT22;4484;48.928;10.066;2023-07-29T01:24:35;15.30;99.90
8896;DHT22;4484;48.928;10.066;2023-07-29T01:27:02;15.30;99.90
8896;DHT22;4484;48.928;10.066;2023-07-29T01:29:31;15.30;99.90
8896;DHT22;4484;48.928;10.066;2023-07-29T01:32:11;15.30;99.90
8896;DHT22;4484;48.928;10.066;2023-07-29T01:34:58;15.40;99.90
8896;DHT22;4484;48.928;10.066;2023-07-29T01:37:30;15.40;99.90
8896;DHT22;4484;48.928;10.066;2023-07-29T01:40:00;15.40;99.90
8896;DHT22;4484;48.928;10.066;2023-07-29T01:42:29;15.40;99.90
8896;DHT22;4484;48.928;10.066;2023-07-29T01:44:56;15.40;99.90
8896;DHT22;4484;48.928;10.066;2023-07-29T01:47:24;15.40;99.90
8896;DHT22;4484;48.928;10.066;2023-07-29T01:49:54;15.50;99.90
8896;DHT22;4484;48.928;10.066;2023-07-29T01:52:21;15.40;99.90
8896;DHT22;4484;48.928;10.066;2023-07-29T01:54:48;15.40;99.90
8896;DHT22;4484;48.928;10.066;2023-07-29T01:57:15;15.40;99.90
8896;DHT22;4484;48.928;10.066;2023-07-29T01:59:42;15.50;99.90
8896;DHT22;4484;48.928;10.066;2023-07-29T02:02:09;15.40;99.90
8896;DHT22;4484;48.928;10.066;2023-07-29T02:04:37;15.40;99.90
8896;DHT22;4484;48.928;10.066;2023-07-29T02:07:04;15.40;99.90
8896;DHT22;4484;48.928;10.066;2023-07-29T02:09:31;15.40;99.90
8896;DHT22;4484;48.928;10.066;2023-07-29T02:11:58;15.40;99.90
8896;DHT22;4484;48.928;10.066;2023-07-29T02:14:25;15.40;99.90
8896;DHT22;4484;48.928;10.066;2023-07-29T02:16:52;15.40;99.90
8896;DHT22;4484;48.928;10.066;2023-07-29T02:19:19;15.40;99.90
8896;DHT22;4484;48.928;10.066;2023-07-29T02:21:46;15.40;99.90
8896;DHT22;4484;48.928;10.066;2023-07-29T02:24:13;15.40;99.90
8896;DHT22;4484;48.928;10.066;2023-07-29T02:26:41;15.40;99.90
8896;DHT22;4484;48.928;10.066;2023-07-29T02:29:08;15.40;99.90
8896;DHT22;4484;48.928;10.066;2023-07-29T02:31:35;15.40;99.90
8896;DHT22;4484;48.928;10.066;2023-07-29T02:34:04;15.40;99.90
8896;DHT22;4484;48.928;10.066;2023-07-29T02:36:31;15.40;99.90
8896;DHT22;4484;48.928;10.066;2023-07-29T02:38:58;15.50;99.90
8896;DHT22;4484;48.928;10.066;2023-07-29T02:41:25;15.50;99.90
8896;DHT22;4484;48.928;10.066;2023-07-29T02:43:52;15.50;99.90
8896;DHT22;4484;48.928;10.066;2023-07-29T02:46:19;15.50;99.90
8896;DHT22;4484;48.928;10.066;2023-07-29T02:48:46;15.60;99.90
8896;DHT22;4484;48.928;10.066;2023-07-29T02:51:13;15.60;99.90
8896;DHT22;4484;48.928;10.066;2023-07-29T02:53:40;15.60;99.90
8896;DHT22;4484;48.928;10.066;2023-07-29T02:56:07;15.60;99.90
8896;DHT22;4484;48.928;10.066;2023-07-29T02:58:36;15.70;99.90
8896;DHT22;4484;48.928;10.066;2023-07-29T03:01:04;15.70;99.90
8896;DHT22;4484;48.928;10.066;2023-07-29T03:03:32;15.70;99.90
8896;DHT22;4484;48.928;10.066;2023-07-29T03:06:03;15.70;99.90
8896;DHT22;4484;48.928;10.066;2023-07-29T03:08:31;15.70;99.90
8896;DHT22;4484;48.928;10.066;2023-07-29T03:10:58;15.70;99.90
8896;DHT22;4484;48.928;10.066;2023-07-29T03:13:25;15.70;99.90
8896;DHT22;4484;48.928;10.066;2023-07-29T03:15:52;15.70;99.90
8896;DHT22;4484;48.928;10.066;2023-07-29T03:18:19;15.70;99.90
8896;DHT22;4484;48.928;10.066;2023-07-29T03:20:46;15.70;99.90
8896;DHT22;4484;48.928;10.066;2023-07-29T03:23:15;15.70;99.90
8896;DHT22;4484;48.928;10.066;2023-07-29T03:25:42;15.70;99.90
8896;DHT22;4484;48.928;10.066;2023-07-29T03:28:09;15.70;99.90
8896;DHT22;4484;48.928;10.066;2023-07-29T03:30:36;15.60;99.90
8896;DHT22;4484;48.928;10.066;2023-07-29T03:33:04;15.60;99.90
8896;DHT22;4484;48.928;10.066;2023-07-29T03:35:31;15.50;99.90
8896;DHT22;4484;48.928;10.066;2023-07-29T03:37:58;15.60;99.90
8896;DHT22;4484;48.928;10.066;2023-07-29T03:40:25;15.50;99.90
8896;DHT22;4484;48.928;10.066;2023-07-29T03:42:52;15.50;99.90
8896;DHT22;4484;48.928;10.066;2023-07-29T03:45:19;15.50;99.90
8896;DHT22;4484;48.928;10.066;2023-07-29T03:47:46;15.40;99.90
8896;DHT22;4484;48.928;10.066;2023-07-29T03:50:13;15.40;99.90
8896;DHT22;4484;48.928;10.066;2023-07-29T03:52:40;15.40;99.90
8896;DHT22;4484;48.928;10.066;2023-07-29T03:55:07;15.40;99.90
8896;DHT22;4484;48.928;10.066;2023-07-29T03:57:34;15.50;99.90
8896;DHT22;4484;48.928;10.066;2023-07-29T04:00:02;15.50;99.90
8896;DHT22;4484;48.928;10.066;2023-07-29T04:02:30;15.50;99.90
8896;DHT22;4484;48.928;10.066;2023-07-29T04:04:57;15.50;99.90
8896;DHT22;4484;48.928;10.066;2023-07-29T04:07:24;15.60;99.90
8896;DHT22;4484;48.928;10.066;2023-07-29T04:09:51;15.60;99.90
8896;DHT22;4484;48.928;10.066;2023-07-29T04:12:18;15.70;99.90
8896;DHT22;4484;48.928;10.066;2023-07-29T04:14:48;15.70;99.90
8896;DHT22;4484;48.928;10.066;2023-07-29T04:17:15;15.70;99.90
8896;DHT22;4484;48.928;10.066;2023-07-29T04:19:42;15.80;99.90
8896;DHT22;4484;48.928;10.066;2023-07-29T04:22:09;15.80;99.90
8896;DHT22;4484;48.928;10.066;2023-07-29T04:24:36;15.80;99.90
8896;DHT22;4484;48.928;10.066;2023-07-29T04:27:04;15.80;99.90
8896;DHT22;4484;48.928;10.066;2023-07-29T04:29:31;15.90;99.90
8896;DHT22;4484;48.928;10.066;2023-07-29T04:31:58;15.90;99.90
8896;DHT22;4484;48.928;10.066;2023-07-29T04:34:25;15.90;99.90
8896;DHT22;4484;48.928;10.066;2023-07-29T04:36:52;16.00;99.90
8896;DHT22;4484;48.928;10.066;2023-07-29T04:39:19;16.00;99.90
8896;DHT22;4484;48.928;10.066;2023-07-29T04:41:46;16.10;99.90
8896;DHT22;4484;48.928;10.066;2023-07-29T04:44:14;16.10;99.90
8896;DHT22;4484;48.928;10.066;2023-07-29T04:46:42;16.10;99.90
8896;DHT22;4484;48.928;10.066;2023-07-29T04:49:08;16.10;99.90
8896;DHT22;4484;48.928;10.066;2023-07-29T04:51:35;16.10;99.90
8896;DHT22;4484;48.928;10.066;2023-07-29T04:54:04;16.10;99.90
8896;DHT22;4484;48.928;10.066;2023-07-29T04:56:31;16.20;99.90
8896;DHT22;4484;48.928;10.066;2023-07-29T04:58:58;16.20;99.90
8896;DHT22;4484;48.928;10.066;2023-07-29T05:01:25;16.20;99.90
8896;DHT22;4484;48.928;10.066;2023-07-29T05:03:52;16.20;99.90
8896;DHT22;4484;48.928;10.066;2023-07-29T05:06:19;16.20;99.90
8896;DHT22;4484;48.928;10.066;2023-07-29T05:08:46;16.20;99.90
8896;DHT22;4484;48.928;10.066;2023-07-29T05:11:13;16.30;99.90
8896;DHT22;4484;48.928;10.066;2023-07-29T05:13:40;16.30;99.90
8896;DHT22;4484;48.928;10.066;2023-07-29T05:16:07;16.30;99.90
8896;DHT22;4484;48.928;10.066;2023-07-29T05:18:34;16.30;99.90
8896;DHT22;4484;48.928;10.066;2023-07-29T05:21:01;16.30;99.90
8896;DHT22;4484;48.928;10.066;2023-07-29T05:23:28;16.40;99.90
8896;DHT22;4484;48.928;10.066;2023-07-29T05:25:55;16.40;99.90
8896;DHT22;4484;48.928;10.066;2023-07-29T05:28:22;16.50;99.90
8896;DHT22;4484;48.928;10.066;2023-07-29T05:30:49;16.50;99.90
8896;DHT22;4484;48.928;10.066;2023-07-29T05:33:16;16.60;99.90
8896;DHT22;4484;48.928;10.066;2023-07-29T05:35:43;16.60;99.90
8896;DHT22;4484;48.928;10.066;2023-07-29T05:38:10;16.60;99.90
8896;DHT22;4484;48.928;10.066;2023-07-29T05:40:37;16.70;99.90
8896;DHT22;4484;48.928;10.066;2023-07-29T05:43:04;16.70;99.90
8896;DHT22;4484;48.928;10.066;2023-07-29T05:45:31;16.70;99.90
8896;DHT22;4484;48.928;10.066;2023-07-29T05:47:59;16.70;99.90
8896;DHT22;4484;48.928;10.066;2023-07-29T05:50:26;16.70;99.90
8896;DHT22;4484;48.928;10.066;2023-07-29T05:52:53;16.70;99.90
8896;DHT22;4484;48.928;10.066;2023-07-29T05:55:20;16.70;99.90
8896;DHT22;4484;48.928;10.066;2023-07-29T05:57:47;16.60;99.90
8896;DHT22;4484;48.928;10.066;2023-07-29T06:00:14;16.70;99.90
8896;DHT22;4484;48.928;10.066;2023-07-29T06:02:41;16.70;99.90
8896;DHT22;4484;48.928;10.066;2023-07-29T06:05:12;16.70;99.90
8896;DHT22;4484;48.928;10.066;2023-07-29T06:07:40;16.60;99.90
8896;DHT22;4484;48.928;10.066;2023-07-29T06:10:13;16.70;99.90
8896;DHT22;4484;48.928;10.066;2023-07-29T06:12:41;16.70;99.90
8896;DHT22;4484;48.928;10.066;2023-07-29T06:15:08;16.80;99.90
8896;DHT22;4484;48.928;10.066;2023-07-29T06:17:35;16.80;99.90
8896;DHT22;4484;48.928;10.066;2023-07-29T06:20:02;16.90;99.90
8896;DHT22;4484;48.928;10.066;2023-07-29T06:22:29;17.00;99.90
8896;DHT22;4484;48.928;10.066;2023-07-29T06:24:56;17.00;99.90
8896;DHT22;4484;48.928;10.066;2023-07-29T06:27:24;17.00;99.90
8896;DHT22;4484;48.928;10.066;2023-07-29T06:29:51;17.10;99.90
8896;DHT22;4484;48.928;10.066;2023-07-29T06:32:18;17.10;99.90
8896;DHT22;4484;48.928;10.066;2023-07-29T06:39:16;17.20;99.90
8896;DHT22;4484;48.928;10.066;2023-07-29T06:41:43;17.40;99.90
8896;DHT22;4484;48.928;10.066;2023-07-29T06:44:12;17.40;99.90
8896;DHT22;4484;48.928;10.066;2023-07-29T06:46:39;17.60;99.90
8896;DHT22;4484;48.928;10.066;2023-07-29T06:49:06;17.70;99.90
8896;DHT22;4484;48.928;10.066;2023-07-29T06:51:33;17.80;99.90
8896;DHT22;4484;48.928;10.066;2023-07-29T06:54:02;17.90;99.90
8896;DHT22;4484;48.928;10.066;2023-07-29T06:56:29;18.00;99.90
8896;DHT22;4484;48.928;10.066;2023-07-29T06:58:56;18.20;99.90
8896;DHT22;4484;48.928;10.066;2023-07-29T07:01:23;18.30;99.90
8896;DHT22;4484;48.928;10.066;2023-07-29T07:03:50;18.40;99.90
8896;DHT22;4484;48.928;10.066;2023-07-29T07:06:17;18.50;99.90
8896;DHT22;4484;48.928;10.066;2023-07-29T07:08:43;18.60;99.90
8896;DHT22;4484;48.928;10.066;2023-07-29T07:11:10;18.70;99.90
8896;DHT22;4484;48.928;10.066;2023-07-29T07:13:37;18.70;99.90
8896;DHT22;4484;48.928;10.066;2023-07-29T07:16:04;18.70;99.90
8896;DHT22;4484;48.928;10.066;2023-07-29T07:18:31;18.70;99.90
8896;DHT22;4484;48.928;10.066;2023-07-29T07:20:58;18.70;99.90
8896;DHT22;4484;48.928;10.066;2023-07-29T07:23:24;18.80;99.90
8896;DHT22;4484;48.928;10.066;2023-07-29T07:25:51;18.90;99.90
8896;DHT22;4484;48.928;10.066;2023-07-29T07:28:18;19.00;99.90
8896;DHT22;4484;48.928;10.066;2023-07-29T07:30:45;19.20;99.90
8896;DHT22;4484;48.928;10.066;2023-07-29T07:33:12;19.40;99.90
8896;DHT22;4484;48.928;10.066;2023-07-29T07:35:38;19.50;99.90
8896;DHT22;4484;48.928;10.066;2023-07-29T07:38:05;19.50;99.90
8896;DHT22;4484;48.928;10.066;2023-07-29T07:40:34;19.50;99.90
8896;DHT22;4484;48.928;10.066;2023-07-29T07:43:01;19.50;99.90
8896;DHT22;4484;48.928;10.066;2023-07-29T07:45:28;19.40;99.90
8896;DHT22;4484;48.928;10.066;2023-07-29T07:47:55;19.40;99.90
8896;DHT22;4484;48.928;10.066;2023-07-29T07:50:22;19.30;99.90
8896;DHT22;4484;48.928;10.066;2023-07-29T07:52:50;19.20;99.90
8896;DHT22;4484;48.928;10.066;2023-07-29T07:55:17;19.10;99.90
8896;DHT22;4484;48.928;10.066;2023-07-29T07:57:44;19.00;99.90
8896;DHT22;4484;48.928;10.066;2023-07-29T08:00:11;18.90;99.90
8896;DHT22;4484;48.928;10.066;2023-07-29T08:02:38;18.70;99.90
8896;DHT22;4484;48.928;10.066;2023-07-29T08:05:05;18.50;99.90
8896;DHT22;4484;48.928;10.066;2023-07-29T08:07:32;18.40;99.90
8896;DHT22;4484;48.928;10.066;2023-07-29T08:10:00;18.20;99.90
8896;DHT22;4484;48.928;10.066;2023-07-29T08:12:27;18.10;99.90
8896;DHT22;4484;48.928;10.066;2023-07-29T08:14:54;18.00;99.90
8896;DHT22;4484;48.928;10.066;2023-07-29T08:17:20;17.90;99.90
8896;DHT22;4484;48.928;10.066;2023-07-29T08:19:47;17.80;99.90
8896;DHT22;4484;48.928;10.066;2023-07-29T08:22:14;17.70;99.90
8896;DHT22;4484;48.928;10.066;2023-07-29T08:24:43;17.60;99.90
8896;DHT22;4484;48.928;10.066;2023-07-29T08:27:10;17.60;99.90
8896;DHT22;4484;48.928;10.066;2023-07-29T08:29:37;17.50;99.90
8896;DHT22;4484;48.928;10.066;2023-07-29T08:32:04;17.60;99.90
8896;DHT22;4484;48.928;10.066;2023-07-29T08:34:30;17.60;99.90
8896;DHT22;4484;48.928;10.066;2023-07-29T08:36:57;17.70;99.90
8896;DHT22;4484;48.928;10.066;2023-07-29T08:39:24;17.80;99.90
8896;DHT22;4484;48.928;10.066;2023-07-29T08:42:07;17.90;99.90
8896;DHT22;4484;48.928;10.066;2023-07-29T08:44:40;17.90;99.90
8896;DHT22;4484;48.928;10.066;2023-07-29T08:47:07;18.00;99.90
8896;DHT22;4484;48.928;10.066;2023-07-29T08:49:34;18.20;99.90
8896;DHT22;4484;48.928;10.066;2023-07-29T08:52:02;18.40;99.90
8896;DHT22;4484;48.928;10.066;2023-07-29T08:54:30;18.50;99.90
8896;DHT22;4484;48.928;10.066;2023-07-29T08:56:58;18.60;99.90
8896;DHT22;4484;48.928;10.066;2023-07-29T08:59:26;18.60;99.90
8896;DHT22;4484;48.928;10.066;2023-07-29T09:01:54;18.70;99.90
8896;DHT22;4484;48.928;10.066;2023-07-29T09:04:23;18.80;99.90
8896;DHT22;4484;48.928;10.066;2023-07-29T09:06:51;18.80;99.90
8896;DHT22;4484;48.928;10.066;2023-07-29T09:09:21;18.80;99.90
8896;DHT22;4484;48.928;10.066;2023-07-29T09:11:48;19.00;99.90
8896;DHT22;4484;48.928;10.066;2023-07-29T09:14:15;19.10;99.90
8896;DHT22;4484;48.928;10.066;2023-07-29T09:16:42;19.60;99.90
8896;DHT22;4484;48.928;10.066;2023-07-29T09:19:09;20.10;99.90
8896;DHT22;4484;48.928;10.066;2023-07-29T09:21:39;20.60;99.90
8896;DHT22;4484;48.928;10.066;2023-07-29T09:24:07;21.20;99.90
8896;DHT22;4484;48.928;10.066;2023-07-29T09:26:35;21.50;99.90
8896;DHT22;4484;48.928;10.066;2023-07-29T09:29:02;21.80;99.90
8896;DHT22;4484;48.928;10.066;2023-07-29T09:31:30;22.20;99.90
8896;DHT22;4484;48.928;10.066;2023-07-29T09:33:58;22.60;99.90
8896;DHT22;4484;48.928;10.066;2023-07-29T09:36:26;22.90;99.90
8896;DHT22;4484;48.928;10.066;2023-07-29T09:38:56;23.20;99.90
8896;DHT22;4484;48.928;10.066;2023-07-29T09:41:28;23.40;99.90
8896;DHT22;4484;48.928;10.066;2023-07-29T09:43:57;23.50;99.90
8896;DHT22;4484;48.928;10.066;2023-07-29T09:46:37;23.60;99.90
8896;DHT22;4484;48.928;10.066;2023-07-29T09:49:06;24.00;99.90
8896;DHT22;4484;48.928;10.066;2023-07-29T09:51:40;23.90;99.90
8896;DHT22;4484;48.928;10.066;2023-07-29T09:54:07;24.10;99.90
8896;DHT22;4484;48.928;10.066;2023-07-29T09:56:39;24.30;99.90
8896;DHT22;4484;48.928;10.066;2023-07-29T09:59:07;24.70;99.90
8896;DHT22;4484;48.928;10.066;2023-07-29T10:01:34;25.00;99.90
8896;DHT22;4484;48.928;10.066;2023-07-29T10:04:04;25.00;99.90
8896;DHT22;4484;48.928;10.066;2023-07-29T10:06:34;25.00;99.90
8896;DHT22;4484;48.928;10.066;2023-07-29T10:09:02;25.10;99.90
8896;DHT22;4484;48.928;10.066;2023-07-29T10:11:29;25.00;99.90
8896;DHT22;4484;48.928;10.066;2023-07-29T10:13:57;24.90;99.90
8896;DHT22;4484;48.928;10.066;2023-07-29T10:16:36;25.10;99.90
8896;DHT22;4484;48.928;10.066;2023-07-29T10:19:04;25.30;99.90
8896;DHT22;4484;48.928;10.066;2023-07-29T10:21:34;25.20;99.90
8896;DHT22;4484;48.928;10.066;2023-07-29T10:24:08;25.10;99.90
8896;DHT22;4484;48.928;10.066;2023-07-29T10:26:37;25.40;99.90
8896;DHT22;4484;48.928;10.066;2023-07-29T10:29:12;25.80;99.90
8896;DHT22;4484;48.928;10.066;2023-07-29T10:31:40;26.00;99.90
8896;DHT22;4484;48.928;10.066;2023-07-29T10:34:10;25.80;99.90
8896;DHT22;4484;48.928;10.066;2023-07-29T10:36:37;25.60;99.90
8896;DHT22;4484;48.928;10.066;2023-07-29T10:39:07;25.70;99.90
8896;DHT22;4484;48.928;10.066;2023-07-29T10:42:02;25.80;99.90
8896;DHT22;4484;48.928;10.066;2023-07-29T10:47:25;26.30;99.90
8896;DHT22;4484;48.928;10.066;2023-07-29T10:49:55;26.00;99.90
8896;DHT22;4484;48.928;10.066;2023-07-29T10:55:02;25.30;99.90
8896;DHT22;4484;48.928;10.066;2023-07-29T10:57:39;24.90;99.90
8896;DHT22;4484;48.928;10.066;2023-07-29T11:00:09;24.60;99.90
8896;DHT22;4484;48.928;10.066;2023-07-29T11:02:38;24.20;99.90
8896;DHT22;4484;48.928;10.066;2023-07-29T11:05:16;23.90;99.90
8896;DHT22;4484;48.928;10.066;2023-07-29T11:07:48;23.20;99.90
8896;DHT22;4484;48.928;10.066;2023-07-29T11:10:15;22.30;99.90
8896;DHT22;4484;48.928;10.066;2023-07-29T11:12:45;21.50;99.90
8896;DHT22;4484;48.928;10.066;2023-07-29T11:15:18;21.00;99.90
8896;DHT22;4484;48.928;10.066;2023-07-29T11:17:55;20.60;99.90
8896;DHT22;4484;48.928;10.066;2023-07-29T11:20:31;20.30;99.90
8896;DHT22;4484;48.928;10.066;2023-07-29T11:23:03;20.20;99.90
8896;DHT22;4484;48.928;10.066;2023-07-29T11:25:31;20.50;99.90
8896;DHT22;4484;48.928;10.066;2023-07-29T11:27:59;20.80;99.90
8896;DHT22;4484;48.928;10.066;2023-07-29T11:30:29;21.00;99.90
8896;DHT22;4484;48.928;10.066;2023-07-29T11:32:58;21.20;99.90
8896;DHT22;4484;48.928;10.066;2023-07-29T11:35:25;21.30;99.90
8896;DHT22;4484;48.928;10.066;2023-07-29T11:37:54;21.30;99.90
8896;DHT22;4484;48.928;10.066;2023-07-29T11:40:24;21.20;99.90
8896;DHT22;4484;48.928;10.066;2023-07-29T11:42:52;21.10;99.90
8896;DHT22;4484;48.928;10.066;2023-07-29T11:45:21;21.00;99.90
8896;DHT22;4484;48.928;10.066;2023-07-29T11:47:51;21.10;99.90
8896;DHT22;4484;48.928;10.066;2023-07-29T11:50:18;21.50;99.90
8896;DHT22;4484;48.928;10.066;2023-07-29T11:52:46;21.90;99.90
8896;DHT22;4484;48.928;10.066;2023-07-29T11:55:14;22.40;99.90
8896;DHT22;4484;48.928;10.066;2023-07-29T11:57:42;23.00;99.90
8896;DHT22;4484;48.928;10.066;2023-07-29T12:00:10;23.40;99.90
8896;DHT22;4484;48.928;10.066;2023-07-29T12:02:40;23.80;99.90
8896;DHT22;4484;48.928;10.066;2023-07-29T12:05:09;24.20;99.90
8896;DHT22;4484;48.928;10.066;2023-07-29T12:07:38;24.60;99.90
8896;DHT22;4484;48.928;10.066;2023-07-29T12:10:06;24.90;99.90
8896;DHT22;4484;48.928;10.066;2023-07-29T12:12:44;25.10;99.90
8896;DHT22;4484;48.928;10.066;2023-07-29T12:15:10;25.30;99.90
8896;DHT22;4484;48.928;10.066;2023-07-29T12:17:41;25.20;99.90
8896;DHT22;4484;48.928;10.066;2023-07-29T12:20:09;25.00;99.90
8896;DHT22;4484;48.928;10.066;2023-07-29T12:22:37;24.90;99.90
8896;DHT22;4484;48.928;10.066;2023-07-29T12:25:04;24.80;99.90
8896;DHT22;4484;48.928;10.066;2023-07-29T12:27:31;24.70;99.90
8896;DHT22;4484;48.928;10.066;2023-07-29T12:30:00;24.90;99.90
8896;DHT22;4484;48.928;10.066;2023-07-29T12:32:29;25.20;99.90
8896;DHT22;4484;48.928;10.066;2023-07-29T12:34:57;25.50;99.90
8896;DHT22;4484;48.928;10.066;2023-07-29T12:37:33;25.80;99.90
8896;DHT22;4484;48.928;10.066;2023-07-29T12:40:01;26.10;99.90
8896;DHT22;4484;48.928;10.066;2023-07-29T12:42:28;26.30;99.90
8896;DHT22;4484;48.928;10.066;2023-07-29T12:44:55;26.40;99.90
8896;DHT22;4484;48.928;10.066;2023-07-29T12:47:22;26.60;99.90
8896;DHT22;4484;48.928;10.066;2023-07-29T12:49:49;26.80;99.90
8896;DHT22;4484;48.928;10.066;2023-07-29T12:52:16;26.80;99.90
8896;DHT22;4484;48.928;10.066;2023-07-29T12:54:42;26.80;99.90
8896;DHT22;4484;48.928;10.066;2023-07-29T12:57:11;26.80;99.90
8896;DHT22;4484;48.928;10.066;2023-07-29T12:59:38;26.60;99.90
8896;DHT22;4484;48.928;10.066;2023-07-29T13:02:04;26.50;99.90
8896;DHT22;4484;48.928;10.066;2023-07-29T13:04:33;26.50;99.90
8896;DHT22;4484;48.928;10.066;2023-07-29T13:07:00;26.50;99.90
8896;DHT22;4484;48.928;10.066;2023-07-29T13:09:27;26.60;99.90
8896;DHT22;4484;48.928;10.066;2023-07-29T13:11:54;26.80;99.90
8896;DHT22;4484;48.928;10.066;2023-07-29T13:14:21;27.10;99.90
8896;DHT22;4484;48.928;10.066;2023-07-29T13:16:48;27.40;99.90
8896;DHT22;4484;48.928;10.066;2023-07-29T13:19:15;27.80;99.90
8896;DHT22;4484;48.928;10.066;2023-07-29T13:21:42;27.90;99.90
8896;DHT22;4484;48.928;10.066;2023-07-29T13:24:08;28.10;99.90
8896;DHT22;4484;48.928;10.066;2023-07-29T13:26:35;28.10;99.90
8896;DHT22;4484;48.928;10.066;2023-07-29T13:29:02;27.90;99.90
8896;DHT22;4484;48.928;10.066;2023-07-29T13:31:34;27.90;99.90
8896;DHT22;4484;48.928;10.066;2023-07-29T13:34:01;27.80;99.90
8896;DHT22;4484;48.928;10.066;2023-07-29T13:36:28;27.70;99.90
8896;DHT22;4484;48.928;10.066;2023-07-29T13:38:54;27.70;99.90
8896;DHT22;4484;48.928;10.066;2023-07-29T13:41:21;27.70;99.90
8896;DHT22;4484;48.928;10.066;2023-07-29T13:43:48;27.60;99.90
8896;DHT22;4484;48.928;10.066;2023-07-29T13:46:15;27.70;99.90
8896;DHT22;4484;48.928;10.066;2023-07-29T13:48:42;27.60;99.90
8896;DHT22;4484;48.928;10.066;2023-07-29T13:51:08;27.60;99.90
8896;DHT22;4484;48.928;10.066;2023-07-29T13:53:35;27.60;99.90
8896;DHT22;4484;48.928;10.066;2023-07-29T13:56:02;27.70;99.90
8896;DHT22;4484;48.928;10.066;2023-07-29T13:58:29;27.60;99.90
8896;DHT22;4484;48.928;10.066;2023-07-29T14:00:56;27.70;99.90
8896;DHT22;4484;48.928;10.066;2023-07-29T14:03:25;27.80;99.90
8896;DHT22;4484;48.928;10.066;2023-07-29T14:05:52;27.80;99.90
8896;DHT22;4484;48.928;10.066;2023-07-29T14:08:19;27.70;99.90
8896;DHT22;4484;48.928;10.066;2023-07-29T14:10:46;27.60;99.90
8896;DHT22;4484;48.928;10.066;2023-07-29T14:13:13;27.40;99.90
8896;DHT22;4484;48.928;10.066;2023-07-29T14:15:39;27.20;99.90
8896;DHT22;4484;48.928;10.066;2023-07-29T14:18:06;26.90;99.90
8896;DHT22;4484;48.928;10.066;2023-07-29T14:20:33;26.70;99.90
8896;DHT22;4484;48.928;10.066;2023-07-29T14:23:00;26.70;99.90
8896;DHT22;4484;48.928;10.066;2023-07-29T14:25:27;26.60;99.90
8896;DHT22;4484;48.928;10.066;2023-07-29T14:27:54;26.60;99.90
8896;DHT22;4484;48.928;10.066;2023-07-29T14:30:21;26.80;99.90
8896;DHT22;4484;48.928;10.066;2023-07-29T14:32:48;26.80;99.90
8896;DHT22;4484;48.928;10.066;2023-07-29T14:35:15;26.90;99.90
8896;DHT22;4484;48.928;10.066;2023-07-29T14:37:42;26.90;99.90
8896;DHT22;4484;48.928;10.066;2023-07-29T14:40:09;26.70;99.90
8896;DHT22;4484;48.928;10.066;2023-07-29T14:42:36;26.60;99.90
8896;DHT22;4484;48.928;10.066;2023-07-29T14:45:03;26.80;99.90
8896;DHT22;4484;48.928;10.066;2023-07-29T14:47:30;26.80;99.90
8896;DHT22;4484;48.928;10.066;2023-07-29T14:50:01;27.00;99.90
8896;DHT22;4484;48.928;10.066;2023-07-29T14:52:28;27.10;99.90
8896;DHT22;4484;48.928;10.066;2023-07-29T14:54:55;27.00;99.90
8896;DHT22;4484;48.928;10.066;2023-07-29T14:57:21;27.10;99.90
8896;DHT22;4484;48.928;10.066;2023-07-29T14:59:48;27.00;99.90
8896;DHT22;4484;48.928;10.066;2023-07-29T15:02:15;27.10;99.90
8896;DHT22;4484;48.928;10.066;2023-07-29T15:04:42;27.20;99.90
8896;DHT22;4484;48.928;10.066;2023-07-29T15:07:09;27.10;99.90
8896;DHT22;4484;48.928;10.066;2023-07-29T15:09:36;26.80;99.90
8896;DHT22;4484;48.928;10.066;2023-07-29T15:12:03;26.60;99.90
8896;DHT22;4484;48.928;10.066;2023-07-29T15:14:30;26.30;99.90
8896;DHT22;4484;48.928;10.066;2023-07-29T15:16:57;26.10;99.90
8896;DHT22;4484;48.928;10.066;2023-07-29T15:19:24;25.90;99.90
8896;DHT22;4484;48.928;10.066;2023-07-29T15:21:51;26.10;99.90
8896;DHT22;4484;48.928;10.066;2023-07-29T15:24:18;26.10;99.90
8896;DHT22;4484;48.928;10.066;2023-07-29T15:26:45;26.10;99.90
8896;DHT22;4484;48.928;10.066;2023-07-29T15:29:12;25.90;99.90
8896;DHT22;4484;48.928;10.066;2023-07-29T15:31:40;25.80;99.90
8896;DHT22;4484;48.928;10.066;2023-07-29T15:34:07;25.90;99.90
8896;DHT22;4484;48.928;10.066;2023-07-29T15:36:34;26.00;99.90
8896;DHT22;4484;48.928;10.066;2023-07-29T15:39:01;25.90;99.90
8896;DHT22;4484;48.928;10.066;2023-07-29T15:41:32;25.80;99.90
8896;DHT22;4484;48.928;10.066;2023-07-29T15:44:00;25.70;99.90
8896;DHT22;4484;48.928;10.066;2023-07-29T15:46:26;25.70;99.90
8896;DHT22;4484;48.928;10.066;2023-07-29T15:48:53;25.60;99.90
8896;DHT22;4484;48.928;10.066;2023-07-29T15:51:22;25.50;99.90
8896;DHT22;4484;48.928;10.066;2023-07-29T15:53:48;25.40;99.90
8896;DHT22;4484;48.928;10.066;2023-07-29T15:56:15;25.40;99.90
8896;DHT22;4484;48.928;10.066;2023-07-29T15:58:42;25.40;99.90
8896;DHT22;4484;48.928;10.066;2023-07-29T16:01:09;25.30;99.90
8896;DHT22;4484;48.928;10.066;2023-07-29T16:03:36;25.20;99.90